KHRL/HRL METAR and TAF weather

Enter ICAO airport designator
Station Type Date Time Source
KHRL METAR 2019/12/14 18:52 UTC NOAA

KHRL 141852Z 18014KT 10SM CLR 32/09 A2981 RMK AO2 SLP093 T03170094


Station Type Date Time Source
KHRL Decoded METAR 2019/12/14 18:52 UTC NOAA

RIO GRANDE VALLEY, TX, United States (KHRL) 26-13N 97-39W 10M
Dec 14, 2019 - 01:52 PM EST / 2019.12.14 1852 UTC
Wind: from the S (180 degrees) at 16 MPH (14 KT):0
Visibility: 10 mile(s):0
Sky conditions: clear
Temperature: 89.1 F (31.7 C)
Dew Point: 48.9 F (9.4 C)
Relative Humidity: 25%
Pressure (altimeter): 29.81 in. Hg (1009 hPa)
ob: KHRL 141852Z 18014KT 10SM CLR 32/09 A2981 RMK AO2 SLP093 T03170094
cycle: 19

Station Type Date Time Source
KHRL TAF 2019/12/14 18:22 UTC NOAA

TAF KHRL 141720Z 1418/1518 20012KT P6SM SKC
FM142100 17013KT P6SM FEW250
FM151500 17021KT P6SM SCT250

Example: see airport list